Willow Lake, South Dakota
Current Conditions -  °F | °C
As of 6:53 PM on Wednesday 22 Oct 2014 (Local Time) from KATY Reporting Station
Overcast Overcast  
Wind Chill: 55°   Ceiling: 700
Heat Index: 55°   Visibility: 10mi
Dew Point: 53°   Wind: 10mph
Humidity: 93%   Direction: 260°W
Pressure: 29.95"   Gusts: NA
Location:  44.63°N, 97.64°W
Report Text: KATY 222353Z AUTO 26009KT 10SM OVC007 13/12 A2995 RMK AO2 SLP144 60019 T01280117 10200 20122 53012
Loading
Personal Weather Stations






























Interactive Weather Map
Tropical Storm Tracking
New forecast layout! Learn more

10-Day Weather Forecast

Advertisements
Track Severe Weather on mobile